Grand Strand Airport
KCRE : now visible

Airfield :











YOU CAN JOIN US ON...

 
LOGIN :

Register | Disclaimer

   EN    FR    IT 

 









Legend :    VFR   Marginal VFR   IFR   Intensive IFR   Very Intensive IFR
Visi :
Ceiling :
>= 8 km
>= 3000ft
5 to 8 km
1000 to 3000 ft
1500m to 5 km
500 to 1000 ft
800 to 1500m
200 to 500 ft
< 800m
< 200 ft
Symbols :   Thunderstorms  Fog  Heavy snow  Heavy precipitations  Wind > 20 kt






- Airport Elevation : 32 ft


KCRE - Grand Strand

CURRENT METAR :
  • 291353Z 04007KT 10SM CLR 06/01 A3011 RMK AO1 SLP196 T00610011

EXPIRED METARs :
  • 291253Z 02006KT 10SM CLR 03/01 A3009 RMK AO1 SLP192 T00330011
  • 291153Z 02005KT 10SM CLR 02/01 A3008 RMK AO1 SLP186 I6000 T00170006 10028 20006 53015

TAF KCRE
Valid from the 29 at 12:00 until the 30 at 12:00 UTC


291120Z 2912/3012 00000KT 1 1/2SM BR SKC
FM291230 05004KT P6SM SCT250
FM300100 08004KT P6SM OVC080
FM301000 03006KT P6SM BKN060



MET'MAP, your aeronautical weather chart ! - Copyright ORBIFLY December 2007 - Disclaimer

ORBIFLY MET'MAP TEAM :

Programming & Development : Alexandra Zaïnal
Concept & original design : Baudouin d'Aumeries
Assistance for programming : Marc-Olivier Méhu
Technical & hardware support : Manuel Goepfert

Contact : metmap@orbifly.com




SOURCES & CREDITS :

   NOAA       Earth
Advisory